sensor_id;sensor_type;location;lat;lon;timestamp;P1;durP1;ratioP1;P2;durP2;ratioP2
31990;SDS011;18508;49.386;8.370;2022-11-15T00:00:03;12.25;;;8.63;;
31990;SDS011;18508;49.386;8.370;2022-11-15T00:05:45;13.82;;;7.60;;
31990;SDS011;18508;49.386;8.370;2022-11-15T00:08:16;12.35;;;8.07;;
31990;SDS011;18508;49.386;8.370;2022-11-15T00:10:53;15.57;;;7.82;;
31990;SDS011;18508;49.386;8.370;2022-11-15T00:13:28;12.85;;;7.72;;
31990;SDS011;18508;49.386;8.370;2022-11-15T00:16:13;12.27;;;7.30;;
31990;SDS011;18508;49.386;8.370;2022-11-15T00:18:45;13.55;;;7.90;;
31990;SDS011;18508;49.386;8.370;2022-11-15T00:21:16;11.77;;;7.87;;
31990;SDS011;18508;49.386;8.370;2022-11-15T00:23:46;14.38;;;7.82;;
31990;SDS011;18508;49.386;8.370;2022-11-15T00:26:19;12.55;;;7.65;;
31990;SDS011;18508;49.386;8.370;2022-11-15T00:28:50;12.25;;;7.10;;
31990;SDS011;18508;49.386;8.370;2022-11-15T00:31:20;12.30;;;7.00;;
31990;SDS011;18508;49.386;8.370;2022-11-15T00:33:55;13.35;;;7.40;;
31990;SDS011;18508;49.386;8.370;2022-11-15T00:36:32;10.95;;;6.85;;
31990;SDS011;18508;49.386;8.370;2022-11-15T00:39:03;10.77;;;6.75;;
31990;SDS011;18508;49.386;8.370;2022-11-15T00:41:32;12.23;;;6.97;;
31990;SDS011;18508;49.386;8.370;2022-11-15T00:44:02;12.55;;;7.65;;
31990;SDS011;18508;49.386;8.370;2022-11-15T00:46:32;12.07;;;7.13;;
31990;SDS011;18508;49.386;8.370;2022-11-15T00:49:02;10.05;;;6.63;;
31990;SDS011;18508;49.386;8.370;2022-11-15T00:51:33;12.75;;;7.53;;
31990;SDS011;18508;49.386;8.370;2022-11-15T00:54:07;14.25;;;7.15;;
31990;SDS011;18508;49.386;8.370;2022-11-15T00:56:36;13.68;;;7.20;;
31990;SDS011;18508;49.386;8.370;2022-11-15T00:59:06;11.35;;;6.65;;
31990;SDS011;18508;49.386;8.370;2022-11-15T01:01:39;11.27;;;6.35;;
31990;SDS011;18508;49.386;8.370;2022-11-15T01:04:10;13.20;;;6.82;;
31990;SDS011;18508;49.386;8.370;2022-11-15T01:06:39;12.25;;;7.50;;
31990;SDS011;18508;49.386;8.370;2022-11-15T01:09:08;11.95;;;6.75;;
31990;SDS011;18508;49.386;8.370;2022-11-15T01:11:37;10.88;;;6.47;;
31990;SDS011;18508;49.386;8.370;2022-11-15T01:14:06;10.70;;;6.75;;
31990;SDS011;18508;49.386;8.370;2022-11-15T01:16:37;10.15;;;6.45;;
31990;SDS011;18508;49.386;8.370;2022-11-15T01:23:22;11.25;;;6.22;;
31990;SDS011;18508;49.386;8.370;2022-11-15T01:25:58;13.38;;;6.50;;
31990;SDS011;18508;49.386;8.370;2022-11-15T01:28:32;11.68;;;7.38;;
31990;SDS011;18508;49.386;8.370;2022-11-15T01:31:10;14.98;;;8.00;;
31990;SDS011;18508;49.386;8.370;2022-11-15T01:33:43;14.55;;;7.85;;
31990;SDS011;18508;49.386;8.370;2022-11-15T01:36:15;12.35;;;6.88;;
31990;SDS011;18508;49.386;8.370;2022-11-15T01:38:48;13.57;;;7.72;;
31990;SDS011;18508;49.386;8.370;2022-11-15T01:41:24;10.02;;;6.30;;
31990;SDS011;18508;49.386;8.370;2022-11-15T01:46:53;10.52;;;6.38;;
31990;SDS011;18508;49.386;8.370;2022-11-15T01:49:22;10.60;;;6.70;;
31990;SDS011;18508;49.386;8.370;2022-11-15T01:51:56;10.40;;;6.18;;
31990;SDS011;18508;49.386;8.370;2022-11-15T01:54:44;9.85;;;6.10;;
31990;SDS011;18508;49.386;8.370;2022-11-15T01:57:16;14.60;;;6.43;;
31990;SDS011;18508;49.386;8.370;2022-11-15T01:59:46;13.55;;;7.18;;
31990;SDS011;18508;49.386;8.370;2022-11-15T02:02:20;13.90;;;7.60;;
31990;SDS011;18508;49.386;8.370;2022-11-15T02:04:52;12.18;;;6.82;;
31990;SDS011;18508;49.386;8.370;2022-11-15T02:07:22;10.50;;;5.78;;
31990;SDS011;18508;49.386;8.370;2022-11-15T02:09:54;10.25;;;6.07;;
31990;SDS011;18508;49.386;8.370;2022-11-15T02:12:30;9.25;;;5.50;;
31990;SDS011;18508;49.386;8.370;2022-11-15T02:14:59;10.50;;;6.25;;
31990;SDS011;18508;49.386;8.370;2022-11-15T02:17:46;10.75;;;5.63;;
31990;SDS011;18508;49.386;8.370;2022-11-15T02:20:45;9.02;;;5.40;;
31990;SDS011;18508;49.386;8.370;2022-11-15T02:23:44;8.27;;;5.28;;
31990;SDS011;18508;49.386;8.370;2022-11-15T02:29:35;8.20;;;5.10;;
31990;SDS011;18508;49.386;8.370;2022-11-15T02:35:26;9.60;;;5.55;;
31990;SDS011;18508;49.386;8.370;2022-11-15T02:38:05;9.25;;;5.47;;
31990;SDS011;18508;49.386;8.370;2022-11-15T02:40:44;11.18;;;5.60;;
31990;SDS011;18508;49.386;8.370;2022-11-15T02:43:28;10.20;;;5.45;;
31990;SDS011;18508;49.386;8.370;2022-11-15T02:46:22;10.15;;;5.22;;
31990;SDS011;18508;49.386;8.370;2022-11-15T02:49:16;8.27;;;5.13;;
31990;SDS011;18508;49.386;8.370;2022-11-15T02:51:49;8.63;;;5.07;;
31990;SDS011;18508;49.386;8.370;2022-11-15T02:54:22;7.85;;;4.88;;
31990;SDS011;18508;49.386;8.370;2022-11-15T02:56:58;10.25;;;5.25;;
31990;SDS011;18508;49.386;8.370;2022-11-15T02:59:40;9.38;;;4.95;;
31990;SDS011;18508;49.386;8.370;2022-11-15T03:02:25;7.60;;;4.75;;
31990;SDS011;18508;49.386;8.370;2022-11-15T03:05:24;8.13;;;5.38;;
31990;SDS011;18508;49.386;8.370;2022-11-15T03:08:06;8.95;;;5.40;;
31990;SDS011;18508;49.386;8.370;2022-11-15T03:10:53;9.10;;;5.07;;
31990;SDS011;18508;49.386;8.370;2022-11-15T03:13:33;9.85;;;5.53;;
31990;SDS011;18508;49.386;8.370;2022-11-15T03:16:14;7.20;;;5.35;;
31990;SDS011;18508;49.386;8.370;2022-11-15T03:19:04;10.10;;;5.65;;
31990;SDS011;18508;49.386;8.370;2022-11-15T03:21:40;9.93;;;4.80;;
31990;SDS011;18508;49.386;8.370;2022-11-15T03:24:17;8.60;;;5.55;;
31990;SDS011;18508;49.386;8.370;2022-11-15T03:26:53;8.68;;;5.43;;
31990;SDS011;18508;49.386;8.370;2022-11-15T03:29:33;9.05;;;5.47;;
31990;SDS011;18508;49.386;8.370;2022-11-15T03:32:07;9.43;;;5.32;;
31990;SDS011;18508;49.386;8.370;2022-11-15T03:34:49;6.68;;;4.97;;
31990;SDS011;18508;49.386;8.370;2022-11-15T03:37:27;7.65;;;4.43;;
31990;SDS011;18508;49.386;8.370;2022-11-15T03:40:07;10.48;;;5.32;;
31990;SDS011;18508;49.386;8.370;2022-11-15T03:42:49;9.07;;;5.30;;
31990;SDS011;18508;49.386;8.370;2022-11-15T03:45:39;9.30;;;5.05;;
31990;SDS011;18508;49.386;8.370;2022-11-15T03:48:13;8.70;;;4.72;;
31990;SDS011;18508;49.386;8.370;2022-11-15T03:50:47;8.50;;;4.88;;
31990;SDS011;18508;49.386;8.370;2022-11-15T03:53:18;6.88;;;4.75;;
31990;SDS011;18508;49.386;8.370;2022-11-15T03:55:48;6.85;;;4.78;;
31990;SDS011;18508;49.386;8.370;2022-11-15T03:58:20;9.18;;;4.90;;
31990;SDS011;18508;49.386;8.370;2022-11-15T04:00:51;8.55;;;4.80;;
31990;SDS011;18508;49.386;8.370;2022-11-15T04:03:30;10.00;;;5.82;;
31990;SDS011;18508;49.386;8.370;2022-11-15T04:06:06;7.72;;;4.90;;
31990;SDS011;18508;49.386;8.370;2022-11-15T04:08:38;8.70;;;4.63;;
31990;SDS011;18508;49.386;8.370;2022-11-15T04:11:09;9.00;;;4.55;;
31990;SDS011;18508;49.386;8.370;2022-11-15T04:13:44;7.22;;;4.65;;
31990;SDS011;18508;49.386;8.370;2022-11-15T04:16:16;8.18;;;4.85;;
31990;SDS011;18508;49.386;8.370;2022-11-15T04:18:45;8.02;;;4.32;;
31990;SDS011;18508;49.386;8.370;2022-11-15T04:21:44;14.23;;;8.23;;
31990;SDS011;18508;49.386;8.370;2022-11-15T04:24:31;13.85;;;6.47;;
31990;SDS011;18508;49.386;8.370;2022-11-15T04:27:03;10.02;;;6.38;;
31990;SDS011;18508;49.386;8.370;2022-11-15T04:29:33;8.90;;;5.55;;
31990;SDS011;18508;49.386;8.370;2022-11-15T04:32:05;8.95;;;5.65;;
31990;SDS011;18508;49.386;8.370;2022-11-15T04:34:34;8.60;;;4.95;;
31990;SDS011;18508;49.386;8.370;2022-11-15T04:37:04;10.32;;;6.30;;
31990;SDS011;18508;49.386;8.370;2022-11-15T04:39:43;8.05;;;4.75;;
31990;SDS011;18508;49.386;8.370;2022-11-15T04:42:25;9.93;;;5.53;;
31990;SDS011;18508;49.386;8.370;2022-11-15T04:44:54;8.40;;;5.32;;
31990;SDS011;18508;49.386;8.370;2022-11-15T04:47:25;9.60;;;5.22;;
31990;SDS011;18508;49.386;8.370;2022-11-15T04:49:55;8.70;;;5.30;;
31990;SDS011;18508;49.386;8.370;2022-11-15T04:52:24;9.48;;;4.40;;
31990;SDS011;18508;49.386;8.370;2022-11-15T04:54:54;7.82;;;4.70;;
31990;SDS011;18508;49.386;8.370;2022-11-15T04:57:25;7.85;;;4.25;;
31990;SDS011;18508;49.386;8.370;2022-11-15T04:59:57;9.10;;;4.88;;
31990;SDS011;18508;49.386;8.370;2022-11-15T05:02:35;7.65;;;4.63;;
31990;SDS011;18508;49.386;8.370;2022-11-15T05:05:23;8.10;;;5.13;;
31990;SDS011;18508;49.386;8.370;2022-11-15T05:07:54;8.45;;;5.22;;
31990;SDS011;18508;49.386;8.370;2022-11-15T05:10:23;8.43;;;5.07;;
31990;SDS011;18508;49.386;8.370;2022-11-15T05:12:53;11.23;;;5.70;;
31990;SDS011;18508;49.386;8.370;2022-11-15T05:15:23;10.20;;;5.18;;
31990;SDS011;18508;49.386;8.370;2022-11-15T05:17:58;7.90;;;5.30;;
31990;SDS011;18508;49.386;8.370;2022-11-15T05:20:27;10.75;;;6.20;;
31990;SDS011;18508;49.386;8.370;2022-11-15T05:22:57;9.38;;;5.65;;
31990;SDS011;18508;49.386;8.370;2022-11-15T05:25:29;9.93;;;5.97;;
31990;SDS011;18508;49.386;8.370;2022-11-15T05:28:01;9.98;;;5.72;;
31990;SDS011;18508;49.386;8.370;2022-11-15T05:30:32;8.98;;;5.28;;
31990;SDS011;18508;49.386;8.370;2022-11-15T05:33:02;9.13;;;5.90;;
31990;SDS011;18508;49.386;8.370;2022-11-15T05:35:37;9.27;;;5.93;;
31990;SDS011;18508;49.386;8.370;2022-11-15T05:38:09;9.65;;;5.13;;
31990;SDS011;18508;49.386;8.370;2022-11-15T05:40:42;11.20;;;5.40;;
31990;SDS011;18508;49.386;8.370;2022-11-15T05:43:15;8.80;;;5.80;;
31990;SDS011;18508;49.386;8.370;2022-11-15T05:45:46;10.45;;;6.45;;
31990;SDS011;18508;49.386;8.370;2022-11-15T05:48:17;9.63;;;5.97;;
31990;SDS011;18508;49.386;8.370;2022-11-15T05:50:46;8.95;;;5.22;;
31990;SDS011;18508;49.386;8.370;2022-11-15T05:53:17;9.93;;;6.25;;
31990;SDS011;18508;49.386;8.370;2022-11-15T05:55:58;9.65;;;6.35;;
31990;SDS011;18508;49.386;8.370;2022-11-15T05:58:40;12.13;;;5.75;;
31990;SDS011;18508;49.386;8.370;2022-11-15T06:01:11;10.73;;;5.68;;
31990;SDS011;18508;49.386;8.370;2022-11-15T06:03:41;8.93;;;6.45;;
31990;SDS011;18508;49.386;8.370;2022-11-15T06:06:12;12.20;;;6.18;;
31990;SDS011;18508;49.386;8.370;2022-11-15T06:08:42;9.30;;;6.20;;
31990;SDS011;18508;49.386;8.370;2022-11-15T06:11:12;11.82;;;6.60;;
31990;SDS011;18508;49.386;8.370;2022-11-15T06:13:43;10.15;;;5.90;;
31990;SDS011;18508;49.386;8.370;2022-11-15T06:16:13;10.15;;;5.97;;
31990;SDS011;18508;49.386;8.370;2022-11-15T06:18:43;8.15;;;5.30;;
31990;SDS011;18508;49.386;8.370;2022-11-15T06:21:20;9.07;;;5.50;;
31990;SDS011;18508;49.386;8.370;2022-11-15T06:23:49;10.50;;;5.68;;
31990;SDS011;18508;49.386;8.370;2022-11-15T06:26:20;12.23;;;5.25;;
31990;SDS011;18508;49.386;8.370;2022-11-15T06:28:51;10.70;;;5.65;;
31990;SDS011;18508;49.386;8.370;2022-11-15T06:31:20;11.95;;;5.85;;
31990;SDS011;18508;49.386;8.370;2022-11-15T06:34:00;10.35;;;5.45;;
31990;SDS011;18508;49.386;8.370;2022-11-15T06:36:29;11.05;;;5.60;;
31990;SDS011;18508;49.386;8.370;2022-11-15T06:39:02;12.65;;;5.82;;
31990;SDS011;18508;49.386;8.370;2022-11-15T06:41:40;12.88;;;6.85;;
31990;SDS011;18508;49.386;8.370;2022-11-15T06:44:18;14.98;;;7.32;;
31990;SDS011;18508;49.386;8.370;2022-11-15T06:46:56;13.20;;;7.25;;
31990;SDS011;18508;49.386;8.370;2022-11-15T06:49:26;13.93;;;7.13;;
31990;SDS011;18508;49.386;8.370;2022-11-15T06:51:56;10.55;;;5.68;;
31990;SDS011;18508;49.386;8.370;2022-11-15T06:54:36;11.52;;;6.22;;
31990;SDS011;18508;49.386;8.370;2022-11-15T06:57:08;11.35;;;6.40;;
31990;SDS011;18508;49.386;8.370;2022-11-15T06:59:45;13.43;;;7.28;;
31990;SDS011;18508;49.386;8.370;2022-11-15T07:02:18;16.65;;;8.98;;
31990;SDS011;18508;49.386;8.370;2022-11-15T07:04:47;14.43;;;7.88;;
31990;SDS011;18508;49.386;8.370;2022-11-15T07:07:23;17.38;;;8.93;;
31990;SDS011;18508;49.386;8.370;2022-11-15T07:09:54;20.73;;;10.48;;
31990;SDS011;18508;49.386;8.370;2022-11-15T07:12:23;17.25;;;9.45;;
31990;SDS011;18508;49.386;8.370;2022-11-15T07:14:56;15.82;;;9.93;;
31990;SDS011;18508;49.386;8.370;2022-11-15T07:17:28;17.40;;;10.15;;
31990;SDS011;18508;49.386;8.370;2022-11-15T07:20:03;15.43;;;9.88;;
31990;SDS011;18508;49.386;8.370;2022-11-15T07:22:37;17.58;;;10.23;;
31990;SDS011;18508;49.386;8.370;2022-11-15T07:25:09;18.73;;;11.37;;
31990;SDS011;18508;49.386;8.370;2022-11-15T07:27:41;21.85;;;11.82;;
31990;SDS011;18508;49.386;8.370;2022-11-15T07:30:17;15.97;;;9.80;;
31990;SDS011;18508;49.386;8.370;2022-11-15T07:32:53;13.88;;;8.45;;
31990;SDS011;18508;49.386;8.370;2022-11-15T07:35:27;15.80;;;7.65;;
31990;SDS011;18508;49.386;8.370;2022-11-15T07:38:02;8.60;;;6.07;;
31990;SDS011;18508;49.386;8.370;2022-11-15T07:40:35;15.90;;;8.93;;
31990;SDS011;18508;49.386;8.370;2022-11-15T07:43:24;13.77;;;6.93;;
31990;SDS011;18508;49.386;8.370;2022-11-15T07:45:58;9.77;;;5.70;;
31990;SDS011;18508;49.386;8.370;2022-11-15T07:48:38;8.35;;;5.18;;
31990;SDS011;18508;49.386;8.370;2022-11-15T07:51:11;8.70;;;5.70;;
31990;SDS011;18508;49.386;8.370;2022-11-15T07:53:43;11.25;;;5.40;;
31990;SDS011;18508;49.386;8.370;2022-11-15T07:56:13;16.27;;;6.78;;
31990;SDS011;18508;49.386;8.370;2022-11-15T07:58:48;12.20;;;6.60;;
31990;SDS011;18508;49.386;8.370;2022-11-15T08:01:28;13.85;;;7.90;;
31990;SDS011;18508;49.386;8.370;2022-11-15T08:03:57;15.13;;;8.95;;
31990;SDS011;18508;49.386;8.370;2022-11-15T08:06:25;14.82;;;8.88;;
31990;SDS011;18508;49.386;8.370;2022-11-15T08:08:59;16.77;;;9.45;;
31990;SDS011;18508;49.386;8.370;2022-11-15T08:11:30;16.95;;;9.52;;
31990;SDS011;18508;49.386;8.370;2022-11-15T08:13:59;14.70;;;8.77;;
31990;SDS011;18508;49.386;8.370;2022-11-15T08:16:34;15.05;;;8.60;;
31990;SDS011;18508;49.386;8.370;2022-11-15T08:19:06;14.30;;;8.02;;
31990;SDS011;18508;49.386;8.370;2022-11-15T08:21:40;11.82;;;7.45;;
31990;SDS011;18508;49.386;8.370;2022-11-15T08:24:25;13.45;;;7.60;;
31990;SDS011;18508;49.386;8.370;2022-11-15T08:26:59;14.13;;;7.70;;
31990;SDS011;18508;49.386;8.370;2022-11-15T08:29:44;12.60;;;7.80;;
31990;SDS011;18508;49.386;8.370;2022-11-15T08:32:19;14.75;;;9.00;;
31990;SDS011;18508;49.386;8.370;2022-11-15T08:34:55;14.07;;;9.23;;
31990;SDS011;18508;49.386;8.370;2022-11-15T08:37:25;23.90;;;11.45;;
31990;SDS011;18508;49.386;8.370;2022-11-15T08:39:57;24.33;;;11.77;;
31990;SDS011;18508;49.386;8.370;2022-11-15T08:42:39;21.88;;;10.23;;
31990;SDS011;18508;49.386;8.370;2022-11-15T08:45:18;24.33;;;10.95;;
31990;SDS011;18508;49.386;8.370;2022-11-15T08:47:50;21.63;;;10.63;;
31990;SDS011;18508;49.386;8.370;2022-11-15T08:50:28;17.77;;;9.75;;
31990;SDS011;18508;49.386;8.370;2022-11-15T08:53:23;20.65;;;9.45;;
31990;SDS011;18508;49.386;8.370;2022-11-15T08:56:23;13.07;;;8.20;;
31990;SDS011;18508;49.386;8.370;2022-11-15T08:59:06;14.52;;;8.90;;
31990;SDS011;18508;49.386;8.370;2022-11-15T09:02:01;14.93;;;8.60;;
31990;SDS011;18508;49.386;8.370;2022-11-15T09:04:43;12.75;;;8.45;;
31990;SDS011;18508;49.386;8.370;2022-11-15T09:07:20;12.40;;;8.00;;
31990;SDS011;18508;49.386;8.370;2022-11-15T09:09:51;13.00;;;8.13;;
31990;SDS011;18508;49.386;8.370;2022-11-15T09:12:31;15.43;;;7.53;;
31990;SDS011;18508;49.386;8.370;2022-11-15T09:15:11;14.43;;;6.88;;
31990;SDS011;18508;49.386;8.370;2022-11-15T09:17:52;10.43;;;6.38;;
31990;SDS011;18508;49.386;8.370;2022-11-15T09:23:45;13.02;;;6.70;;
31990;SDS011;18508;49.386;8.370;2022-11-15T09:26:28;10.30;;;5.40;;
31990;SDS011;18508;49.386;8.370;2022-11-15T09:29:13;13.05;;;6.22;;
31990;SDS011;18508;49.386;8.370;2022-11-15T09:31:56;10.77;;;6.65;;
31990;SDS011;18508;49.386;8.370;2022-11-15T09:34:36;12.63;;;8.23;;
31990;SDS011;18508;49.386;8.370;2022-11-15T09:40:10;11.38;;;6.30;;
31990;SDS011;18508;49.386;8.370;2022-11-15T09:43:08;11.23;;;6.18;;
31990;SDS011;18508;49.386;8.370;2022-11-15T09:45:58;8.30;;;5.38;;
31990;SDS011;18508;49.386;8.370;2022-11-15T09:48:49;7.82;;;5.10;;
31990;SDS011;18508;49.386;8.370;2022-11-15T09:51:47;11.10;;;5.35;;
31990;SDS011;18508;49.386;8.370;2022-11-15T09:54:28;7.50;;;5.03;;
31990;SDS011;18508;49.386;8.370;2022-11-15T09:57:23;7.45;;;4.78;;
31990;SDS011;18508;49.386;8.370;2022-11-15T10:00:16;9.75;;;5.85;;
31990;SDS011;18508;49.386;8.370;2022-11-15T10:03:09;9.52;;;5.55;;
31990;SDS011;18508;49.386;8.370;2022-11-15T10:06:05;11.32;;;6.22;;
31990;SDS011;18508;49.386;8.370;2022-11-15T10:08:54;15.45;;;7.78;;
31990;SDS011;18508;49.386;8.370;2022-11-15T10:11:45;11.47;;;6.37;;
31990;SDS011;18508;49.386;8.370;2022-11-15T10:14:30;13.63;;;6.30;;
31990;SDS011;18508;49.386;8.370;2022-11-15T10:17:09;14.20;;;7.22;;
31990;SDS011;18508;49.386;8.370;2022-11-15T10:20:09;12.73;;;5.78;;
31990;SDS011;18508;49.386;8.370;2022-11-15T10:25:34;13.70;;;6.93;;
31990;SDS011;18508;49.386;8.370;2022-11-15T10:31:43;15.90;;;6.85;;
31990;SDS011;18508;49.386;8.370;2022-11-15T10:34:21;10.85;;;6.35;;
31990;SDS011;18508;49.386;8.370;2022-11-15T10:36:58;12.20;;;6.15;;
31990;SDS011;18508;49.386;8.370;2022-11-15T10:39:32;8.63;;;5.22;;
31990;SDS011;18508;49.386;8.370;2022-11-15T10:42:15;10.65;;;5.47;;
31990;SDS011;18508;49.386;8.370;2022-11-15T10:44:51;10.05;;;5.13;;
31990;SDS011;18508;49.386;8.370;2022-11-15T10:47:28;8.77;;;5.55;;
31990;SDS011;18508;49.386;8.370;2022-11-15T10:50:06;8.27;;;4.88;;
31990;SDS011;18508;49.386;8.370;2022-11-15T10:53:01;9.93;;;5.35;;
31990;SDS011;18508;49.386;8.370;2022-11-15T10:55:46;11.15;;;4.85;;
31990;SDS011;18508;49.386;8.370;2022-11-15T10:58:22;7.38;;;4.68;;
31990;SDS011;18508;49.386;8.370;2022-11-15T11:01:25;8.07;;;4.60;;
31990;SDS011;18508;49.386;8.370;2022-11-15T11:04:06;7.95;;;4.63;;
31990;SDS011;18508;49.386;8.370;2022-11-15T11:06:45;6.57;;;4.60;;
31990;SDS011;18508;49.386;8.370;2022-11-15T11:09:35;7.97;;;5.32;;
31990;SDS011;18508;49.386;8.370;2022-11-15T11:12:15;12.40;;;5.13;;
31990;SDS011;18508;49.386;8.370;2022-11-15T11:15:37;9.27;;;5.07;;
31990;SDS011;18508;49.386;8.370;2022-11-15T11:18:47;9.15;;;4.97;;
31990;SDS011;18508;49.386;8.370;2022-11-15T11:21:56;10.23;;;5.13;;
31990;SDS011;18508;49.386;8.370;2022-11-15T11:25:10;8.70;;;4.70;;
31990;SDS011;18508;49.386;8.370;2022-11-15T11:28:02;9.15;;;4.28;;
31990;SDS011;18508;49.386;8.370;2022-11-15T11:31:06;7.40;;;3.75;;
31990;SDS011;18508;49.386;8.370;2022-11-15T11:34:19;7.57;;;3.97;;
31990;SDS011;18508;49.386;8.370;2022-11-15T11:37:03;6.18;;;4.15;;
31990;SDS011;18508;49.386;8.370;2022-11-15T11:39:59;7.70;;;3.80;;
31990;SDS011;18508;49.386;8.370;2022-11-15T11:42:44;9.52;;;3.85;;
31990;SDS011;18508;49.386;8.370;2022-11-15T11:45:37;6.55;;;3.60;;
31990;SDS011;18508;49.386;8.370;2022-11-15T11:48:27;6.30;;;3.55;;
31990;SDS011;18508;49.386;8.370;2022-11-15T11:51:18;7.00;;;3.70;;
31990;SDS011;18508;49.386;8.370;2022-11-15T11:54:00;6.22;;;3.58;;
31990;SDS011;18508;49.386;8.370;2022-11-15T11:56:36;6.47;;;3.67;;
31990;SDS011;18508;49.386;8.370;2022-11-15T11:59:32;6.70;;;3.20;;
31990;SDS011;18508;49.386;8.370;2022-11-15T12:02:28;5.32;;;3.10;;
31990;SDS011;18508;49.386;8.370;2022-11-15T12:05:10;6.43;;;3.40;;
31990;SDS011;18508;49.386;8.370;2022-11-15T12:08:18;6.72;;;3.78;;
31990;SDS011;18508;49.386;8.370;2022-11-15T12:11:17;8.60;;;3.80;;
31990;SDS011;18508;49.386;8.370;2022-11-15T12:13:49;4.93;;;3.38;;
31990;SDS011;18508;49.386;8.370;2022-11-15T12:16:49;5.78;;;3.33;;
31990;SDS011;18508;49.386;8.370;2022-11-15T12:19:22;8.00;;;3.75;;
31990;SDS011;18508;49.386;8.370;2022-11-15T12:22:08;4.97;;;3.30;;
31990;SDS011;18508;49.386;8.370;2022-11-15T12:24:47;5.13;;;3.33;;
31990;SDS011;18508;49.386;8.370;2022-11-15T12:27:29;5.82;;;3.53;;
31990;SDS011;18508;49.386;8.370;2022-11-15T12:30:07;5.93;;;3.33;;
31990;SDS011;18508;49.386;8.370;2022-11-15T12:32:49;6.43;;;3.67;;
31990;SDS011;18508;49.386;8.370;2022-11-15T12:35:35;6.55;;;3.78;;
31990;SDS011;18508;49.386;8.370;2022-11-15T12:38:10;8.60;;;3.65;;
31990;SDS011;18508;49.386;8.370;2022-11-15T12:41:24;5.82;;;3.38;;
31990;SDS011;18508;49.386;8.370;2022-11-15T12:44:10;6.70;;;3.97;;
31990;SDS011;18508;49.386;8.370;2022-11-15T12:50:00;6.78;;;3.80;;
31990;SDS011;18508;49.386;8.370;2022-11-15T12:52:33;5.27;;;3.30;;
31990;SDS011;18508;49.386;8.370;2022-11-15T12:55:31;5.75;;;3.35;;
31990;SDS011;18508;49.386;8.370;2022-11-15T13:04:24;11.60;;;5.65;;
31990;SDS011;18508;49.386;8.370;2022-11-15T13:07:05;5.97;;;3.28;;
31990;SDS011;18508;49.386;8.370;2022-11-15T13:10:00;6.05;;;3.47;;
31990;SDS011;18508;49.386;8.370;2022-11-15T13:12:54;5.88;;;3.25;;
31990;SDS011;18508;49.386;8.370;2022-11-15T13:18:36;5.32;;;2.83;;
31990;SDS011;18508;49.386;8.370;2022-11-15T13:21:19;7.82;;;2.90;;
31990;SDS011;18508;49.386;8.370;2022-11-15T13:24:17;6.05;;;3.25;;
31990;SDS011;18508;49.386;8.370;2022-11-15T13:27:01;6.75;;;3.28;;
31990;SDS011;18508;49.386;8.370;2022-11-15T13:29:44;7.13;;;3.53;;
31990;SDS011;18508;49.386;8.370;2022-11-15T13:32:23;5.82;;;3.60;;
31990;SDS011;18508;49.386;8.370;2022-11-15T13:35:23;8.30;;;3.65;;
31990;SDS011;18508;49.386;8.370;2022-11-15T13:38:04;7.93;;;3.63;;
31990;SDS011;18508;49.386;8.370;2022-11-15T13:40:53;8.88;;;4.05;;
31990;SDS011;18508;49.386;8.370;2022-11-15T13:43:32;6.43;;;3.78;;
31990;SDS011;18508;49.386;8.370;2022-11-15T13:46:18;5.35;;;3.22;;
31990;SDS011;18508;49.386;8.370;2022-11-15T13:48:58;6.93;;;3.08;;
31990;SDS011;18508;49.386;8.370;2022-11-15T13:51:44;6.43;;;3.17;;
31990;SDS011;18508;49.386;8.370;2022-11-15T13:54:27;6.28;;;3.10;;
31990;SDS011;18508;49.386;8.370;2022-11-15T13:57:05;6.53;;;3.50;;
31990;SDS011;18508;49.386;8.370;2022-11-15T13:59:49;9.25;;;3.45;;
31990;SDS011;18508;49.386;8.370;2022-11-15T14:02:31;6.53;;;3.05;;
31990;SDS011;18508;49.386;8.370;2022-11-15T14:05:28;6.47;;;3.97;;
31990;SDS011;18508;49.386;8.370;2022-11-15T14:08:13;4.90;;;3.20;;
31990;SDS011;18508;49.386;8.370;2022-11-15T14:11:20;6.47;;;3.28;;
31990;SDS011;18508;49.386;8.370;2022-11-15T14:14:10;5.75;;;3.17;;
31990;SDS011;18508;49.386;8.370;2022-11-15T14:17:18;4.72;;;2.95;;
31990;SDS011;18508;49.386;8.370;2022-11-15T14:20:35;4.75;;;3.03;;
31990;SDS011;18508;49.386;8.370;2022-11-15T14:23:23;8.88;;;5.03;;
31990;SDS011;18508;49.386;8.370;2022-11-15T14:26:28;6.82;;;4.43;;
31990;SDS011;18508;49.386;8.370;2022-11-15T14:29:26;9.32;;;5.22;;
31990;SDS011;18508;49.386;8.370;2022-11-15T14:32:26;12.00;;;6.15;;
31990;SDS011;18508;49.386;8.370;2022-11-15T14:35:12;9.35;;;5.20;;
31990;SDS011;18508;49.386;8.370;2022-11-15T14:38:03;9.20;;;4.47;;
31990;SDS011;18508;49.386;8.370;2022-11-15T14:40:47;13.32;;;5.95;;
31990;SDS011;18508;49.386;8.370;2022-11-15T14:43:27;10.95;;;5.32;;
31990;SDS011;18508;49.386;8.370;2022-11-15T14:46:06;9.57;;;5.05;;
31990;SDS011;18508;49.386;8.370;2022-11-15T14:48:42;9.90;;;5.87;;
31990;SDS011;18508;49.386;8.370;2022-11-15T14:51:21;12.82;;;6.43;;
31990;SDS011;18508;49.386;8.370;2022-11-15T14:53:55;9.93;;;5.70;;
31990;SDS011;18508;49.386;8.370;2022-11-15T14:56:30;15.80;;;7.18;;
31990;SDS011;18508;49.386;8.370;2022-11-15T14:59:14;10.23;;;5.13;;
31990;SDS011;18508;49.386;8.370;2022-11-15T15:02:00;11.93;;;4.90;;
31990;SDS011;18508;49.386;8.370;2022-11-15T15:04:59;11.88;;;4.70;;
31990;SDS011;18508;49.386;8.370;2022-11-15T15:07:35;9.18;;;5.18;;
31990;SDS011;18508;49.386;8.370;2022-11-15T15:10:36;9.32;;;5.53;;
31990;SDS011;18508;49.386;8.370;2022-11-15T15:13:12;10.90;;;5.78;;
31990;SDS011;18508;49.386;8.370;2022-11-15T15:15:57;9.48;;;6.28;;
31990;SDS011;18508;49.386;8.370;2022-11-15T15:18:40;12.25;;;6.10;;
31990;SDS011;18508;49.386;8.370;2022-11-15T15:21:24;9.95;;;6.13;;
31990;SDS011;18508;49.386;8.370;2022-11-15T15:24:08;10.63;;;5.78;;
31990;SDS011;18508;49.386;8.370;2022-11-15T15:26:58;9.30;;;5.93;;
31990;SDS011;18508;49.386;8.370;2022-11-15T15:29:33;8.90;;;5.53;;
31990;SDS011;18508;49.386;8.370;2022-11-15T15:32:22;8.85;;;5.18;;
31990;SDS011;18508;49.386;8.370;2022-11-15T15:35:01;10.48;;;5.55;;
31990;SDS011;18508;49.386;8.370;2022-11-15T15:37:38;11.70;;;5.45;;
31990;SDS011;18508;49.386;8.370;2022-11-15T15:40:21;12.50;;;5.57;;
31990;SDS011;18508;49.386;8.370;2022-11-15T15:43:09;12.52;;;6.10;;
31990;SDS011;18508;49.386;8.370;2022-11-15T15:46:00;11.15;;;6.18;;
31990;SDS011;18508;49.386;8.370;2022-11-15T15:48:38;11.45;;;5.60;;
31990;SDS011;18508;49.386;8.370;2022-11-15T15:51:10;8.63;;;5.80;;
31990;SDS011;18508;49.386;8.370;2022-11-15T15:53:48;10.38;;;6.20;;
31990;SDS011;18508;49.386;8.370;2022-11-15T15:56:30;13.88;;;7.40;;
31990;SDS011;18508;49.386;8.370;2022-11-15T15:59:11;12.05;;;7.10;;
31990;SDS011;18508;49.386;8.370;2022-11-15T16:01:50;12.55;;;6.82;;
31990;SDS011;18508;49.386;8.370;2022-11-15T16:04:40;13.85;;;7.43;;
31990;SDS011;18508;49.386;8.370;2022-11-15T16:07:29;12.63;;;7.25;;
31990;SDS011;18508;49.386;8.370;2022-11-15T16:10:04;13.60;;;7.22;;
31990;SDS011;18508;49.386;8.370;2022-11-15T16:12:48;13.70;;;7.32;;
31990;SDS011;18508;49.386;8.370;2022-11-15T16:15:26;12.05;;;6.78;;
31990;SDS011;18508;49.386;8.370;2022-11-15T16:18:15;11.15;;;7.30;;
31990;SDS011;18508;49.386;8.370;2022-11-15T16:21:01;12.38;;;7.72;;
31990;SDS011;18508;49.386;8.370;2022-11-15T16:23:31;13.10;;;7.20;;
31990;SDS011;18508;49.386;8.370;2022-11-15T16:26:16;12.35;;;5.90;;
31990;SDS011;18508;49.386;8.370;2022-11-15T16:28:48;12.73;;;7.47;;
31990;SDS011;18508;49.386;8.370;2022-11-15T16:31:20;11.80;;;6.60;;
31990;SDS011;18508;49.386;8.370;2022-11-15T16:33:48;12.65;;;6.80;;
31990;SDS011;18508;49.386;8.370;2022-11-15T16:36:20;16.20;;;6.25;;